Time;durP1;ratioP1;P1;durP2;ratioP2;P2;SDS_P1;SDS_P2;PMS_P1;PMS_P2;Temp;Humidity;BMP_temperature;BMP_pressure;BME280_temperature;BME280_humidity;BME280_pressure;Samples;Min_cycle;Max_cycle;Signal;HPM_P1;HPM_P2
2021/12/09 00:01:44;;;;;;;;;;;;;;;-1.51;99.13;90772.28;6218411;23;19931;-95
2021/12/09 00:04:30;;;;;;;;;;;;;;;-1.51;98.87;90766.34;6292078;22;19934;-94
2021/12/09 00:07:29;;;;;;;;;;;;;;;-1.52;98.59;90775.84;6295336;22;19916;-95
2021/12/09 00:10:05;;;;;;;;;;;;;;;-1.52;99.06;90777.66;6281476;22;19915;-94
2021/12/09 00:13:19;;;;;;;;;;;;;;;;;;;;;
2021/12/09 00:16:09;;;;;;;;;;;;;;;-1.56;98.18;90774.81;6214151;23;20015;-93
2021/12/09 00:19:06;;;;;;;;;;;;;;;-1.56;98.09;90779.94;6213645;22;19938;-95
2021/12/09 00:21:53;;;;;;;;;;;;;;;-1.57;98.02;90770.72;6294483;22;19991;-95
2021/12/09 00:28:09;;;;;;;;;;;;;;;;;;;;;
2021/12/09 00:31:09;;;;;;;;;;;;;;;-1.60;97.96;90763.53;6214233;22;19941;-96
2021/12/09 00:33:48;;;;;;;;;;;;;;;-1.62;97.59;90760.44;6318516;22;19911;-96
2021/12/09 00:36:44;;;;;;;;;;;;;;;-1.60;98.05;90760.19;6286538;22;19982;-94
2021/12/09 00:39:49;;;;;;;;;;;;;;;-1.60;97.47;90753.28;6290483;22;19943;-94
2021/12/09 00:42:55;;;;;;;;;;;;;;;-1.56;97.11;90759.41;6292941;22;19911;-94
2021/12/09 00:45:57;;;;;;;;;;;;;;;-1.57;97.32;90765.59;6289532;22;19987;-94
2021/12/09 00:48:54;;;;;;;;;;;;;;;-1.61;97.37;90751.72;6320686;22;19916;-96
2021/12/09 00:51:55;;;;;;;;;;;;;;;-1.61;97.36;90759.41;6219735;22;19912;-95
2021/12/09 00:54:21;;;;;;;;;;;;;;;-1.64;97.32;90762.50;6292580;22;19912;-94
2021/12/09 00:57:26;;;;;;;;;;;;;;;-1.56;97.15;90766.34;6304584;22;19991;-95
2021/12/09 01:00:16;;;;;;;;;;;;;;;-1.52;96.93;90759.69;6301860;22;20234;-94
2021/12/09 01:03:07;;;;;;;;;;;;;;;;;;;;;
2021/12/09 01:05:54;;;;;;;;;;;;;;;-1.59;97.75;90765.06;6330299;22;19914;-94
2021/12/09 01:08:29;;;;;;;;;;;;;;;-1.65;98.13;90760.94;6318709;22;19937;-95
2021/12/09 01:11:38;;;;;;;;;;;;;;;;;;;;;
2021/12/09 01:14:52;;;;;;;;;;;;;;;;;;;;;
2021/12/09 01:18:05;;;;;;;;;;;;;;;;;;;;;
2021/12/09 01:21:02;;;;;;;;;;;;;;;;;;;;;
2021/12/09 01:24:07;;;;;;;;;;;;;;;-1.56;95.48;90753.53;6346617;22;19910;-96
2021/12/09 01:27:02;;;;;;;;;;;;;;;-1.47;95.31;90764.81;6328329;22;19918;-95
2021/12/09 01:30:08;;;;;;;;;;;;;;;-1.34;95.71;90753.28;6351202;22;19979;-95
2021/12/09 01:32:59;;;;;;;;;;;;;;;-1.39;95.56;90751.50;6330147;22;19985;-94
2021/12/09 01:39:18;;;;;;;;;;;;;;;-1.42;95.67;90759.69;6346836;22;19946;-95
2021/12/09 01:48:13;;;;;;;;;;;;;;;-1.46;95.67;90748.41;6374905;22;19914;-96
2021/12/09 01:54:41;;;;;;;;;;;;;;;-1.36;94.72;90747.63;6372323;22;19910;-95
2021/12/09 01:57:10;;;;;;;;;;;;;;;-1.37;94.97;90743.53;6320061;22;19918;-96
2021/12/09 02:00:24;;;;;;;;;;;;;;;;;;;;;
2021/12/09 02:03:11;;;;;;;;;;;;;;;-1.38;95.28;90755.59;6375458;22;19989;-95
2021/12/09 02:05:59;;;;;;;;;;;;;;;;;;;;;
2021/12/09 02:08:51;;;;;;;;;;;;;;;-1.36;95.00;90743.28;6376453;22;19917;-95
2021/12/09 02:11:38;;;;;;;;;;;;;;;-1.26;92.01;90748.41;6324663;22;19914;-94
2021/12/09 02:15:06;;;;;;;;;;;;;;;-1.18;91.22;90744.56;6333712;22;19917;-96
2021/12/09 02:18:02;;;;;;;;;;;;;;;;;;;;;
2021/12/09 02:20:45;;;;;;;;;;;;;;;-1.07;90.87;90756.38;6326046;22;19930;-95
2021/12/09 02:30:06;;;;;;;;;;;;;;;;;;;;;
2021/12/09 02:33:10;;;;;;;;;;;;;;;-0.86;86.17;90751.22;6327299;22;19967;-96
2021/12/09 02:36:09;;;;;;;;;;;;;;;-0.85;85.87;90758.66;6331509;22;19949;-94
2021/12/09 02:39:23;;;;;;;;;;;;;;;-0.81;85.67;90758.94;6326153;22;20003;-95
2021/12/09 02:42:08;;;;;;;;;;;;;;;-0.82;87.89;90759.94;6352030;22;19917;-95
2021/12/09 02:47:42;;;;;;;;;;;;;;;-0.81;85.55;90769.22;6311187;22;19914;-94
2021/12/09 02:50:40;;;;;;;;;;;;;;;-0.68;86.95;90763.50;6358678;22;19910;-94
2021/12/09 02:53:31;;;;;;;;;;;;;;;-0.74;85.40;90774.84;6382219;22;19952;-94
2021/12/09 02:57:13;;;;;;;;;;;;;;;;;;;;;
2021/12/09 03:00:02;;;;;;;;;;;;;;;-0.58;82.32;90782.53;6372942;22;19910;-96
2021/12/09 03:05:39;;;;;;;;;;;;;;;;;;;;;
2021/12/09 03:08:36;;;;;;;;;;;;;;;-0.31;79.31;90783.00;6346074;22;19944;-95
2021/12/09 03:11:36;;;;;;;;;;;;;;;-0.35;79.99;90783.78;6349088;22;19989;-96
2021/12/09 03:17:18;;;;;;;;;;;;;;;;;;;;;
2021/12/09 03:23:07;;;;;;;;;;;;;;;-0.55;82.33;90793.06;6364456;22;19997;-94
2021/12/09 03:28:46;;;;;;;;;;;;;;;-0.45;79.28;90794.84;6369425;22;19945;-94
2021/12/09 03:31:54;;;;;;;;;;;;;;;-0.44;79.94;90791.25;6333944;22;19934;-93
2021/12/09 03:34:35;;;;;;;;;;;;;;;-0.48;81.39;90795.38;6345128;22;19914;-95
2021/12/09 03:40:45;;;;;;;;;;;;;;;;;;;;;
2021/12/09 03:43:41;;;;;;;;;;;;;;;-0.60;83.81;90797.44;6372943;22;20297;-94
2021/12/09 03:47:11;;;;;;;;;;;;;;;;;;;;;
2021/12/09 03:52:32;;;;;;;;;;;;;;;;;;;;;
2021/12/09 03:55:28;;;;;;;;;;;;;;;-0.49;78.13;90796.41;6347671;22;19914;-95
2021/12/09 03:58:27;;;;;;;;;;;;;;;;;;;;;
2021/12/09 04:07:10;;;;;;;;;;;;;;;-0.23;74.40;90808.16;6360963;22;19918;-94
2021/12/09 04:10:00;;;;;;;;;;;;;;;-0.19;77.67;90797.38;6325236;22;19985;-94
2021/12/09 04:13:05;;;;;;;;;;;;;;;-0.23;77.60;90800.44;6320185;22;20023;-95
2021/12/09 04:15:46;;;;;;;;;;;;;;;;;;;;;
2021/12/09 04:18:45;;;;;;;;;;;;;;;-0.38;79.12;90803.06;6359320;22;19971;-95
2021/12/09 04:21:32;;;;;;;;;;;;;;;-0.42;79.78;90809.75;6317934;22;19996;-94
2021/12/09 04:27:27;;;;;;;;;;;;;;;-0.49;79.86;90806.69;6371767;22;19993;-94
2021/12/09 04:30:11;;;;;;;;;;;;;;;;;;;;;
2021/12/09 04:33:23;;;;;;;;;;;;;;;-0.60;82.42;90815.44;6373763;22;19918;-94
2021/12/09 04:36:25;;;;;;;;;;;;;;;;;;;;;
2021/12/09 04:39:34;;;;;;;;;;;;;;;;;;;;;
2021/12/09 04:42:25;;;;;;;;;;;;;;;-0.43;76.78;90813.34;6371789;22;19982;-94
2021/12/09 04:45:08;;;;;;;;;;;;;;;-0.47;79.40;90810.53;6320513;22;20009;-93
2021/12/09 04:48:11;;;;;;;;;;;;;;;;;;;;;
2021/12/09 04:51:02;;;;;;;;;;;;;;;;;;;;;
2021/12/09 04:53:44;;;;;;;;;;;;;;;;;;;;;
2021/12/09 04:56:48;;;;;;;;;;;;;;;;;;;;;
2021/12/09 05:06:02;;;;;;;;;;;;;;;-0.18;71.53;90822.84;6349363;22;19977;-95
2021/12/09 05:09:49;;;;;;;;;;;;;;;-0.17;71.43;90824.34;6353607;22;19954;-94
2021/12/09 05:12:09;;;;;;;;;;;;;;;-0.12;69.70;90824.34;6376551;22;19910;-94
2021/12/09 05:18:05;;;;;;;;;;;;;;;-0.21;73.88;90831.06;6364741;22;19938;-95
2021/12/09 05:20:48;;;;;;;;;;;;;;;-0.30;75.81;90824.91;6319288;22;19914;-95
2021/12/09 05:23:44;;;;;;;;;;;;;;;;;;;;;
2021/12/09 05:26:36;;;;;;;;;;;;;;;-0.53;78.54;90841.66;6356584;22;20360;-93
2021/12/09 05:29:39;;;;;;;;;;;;;;;-0.65;78.25;90837.53;6319095;22;19910;-93
2021/12/09 05:32:49;;;;;;;;;;;;;;;-0.78;78.96;90850.16;6317386;22;19910;-96
2021/12/09 05:35:23;;;;;;;;;;;;;;;-0.73;73.93;90838.06;6347775;22;19937;-94
2021/12/09 05:38:32;;;;;;;;;;;;;;;-0.76;76.74;90842.94;6327487;22;19956;-94
2021/12/09 05:41:19;;;;;;;;;;;;;;;-0.66;72.67;90845.50;6207154;23;19985;-76
2021/12/09 05:43:45;;;;;;;;;;;;;;;-0.51;72.03;90855.00;6209467;23;20319;-75
2021/12/09 05:46:10;;;;;;;;;;;;;;;-0.44;73.15;90850.38;6313633;22;19907;-75
2021/12/09 05:48:36;;;;;;;;;;;;;;;-0.57;73.74;90861.19;6312408;22;19991;-76
2021/12/09 05:51:02;;;;;;;;;;;;;;;-0.68;76.07;90856.03;6211188;23;20390;-77
2021/12/09 05:53:27;;;;;;;;;;;;;;;-0.82;77.27;90873.00;6314778;22;20232;-79
2021/12/09 05:55:53;;;;;;;;;;;;;;;-0.83;74.18;90881.75;6315104;22;19912;-78
2021/12/09 05:58:19;;;;;;;;;;;;;;;-0.86;73.46;90874.53;6286671;22;19912;-77
2021/12/09 06:00:45;;;;;;;;;;;;;;;-0.80;72.97;90875.31;6289081;22;19903;-79
2021/12/09 06:03:11;;;;;;;;;;;;;;;-0.73;72.46;90884.31;6208956;23;19929;-79
2021/12/09 06:05:36;;;;;;;;;;;;;;;-0.81;74.38;90902.81;6314292;22;20384;-78
2021/12/09 06:08:03;;;;;;;;;;;;;;;-0.88;76.06;90904.84;6289383;22;20532;-79
2021/12/09 06:10:28;;;;;;;;;;;;;;;-0.98;77.07;90903.03;6313588;22;19908;-77
2021/12/09 06:12:55;;;;;;;;;;;;;;;-1.08;78.40;90908.94;6313782;22;20012;-76
2021/12/09 06:15:21;;;;;;;;;;;;;;;-1.16;78.11;90906.84;6290879;22;19938;-78
2021/12/09 06:17:47;;;;;;;;;;;;;;;-1.19;78.67;90917.63;6318579;22;19912;-78
2021/12/09 06:20:12;;;;;;;;;;;;;;;-1.13;77.14;90906.34;6314256;22;19908;-78
2021/12/09 06:22:38;;;;;;;;;;;;;;;-1.08;75.89;90918.41;6210951;23;19903;-79
2021/12/09 06:25:04;;;;;;;;;;;;;;;-1.08;76.66;90926.91;6211066;23;19969;-78
2021/12/09 06:27:29;;;;;;;;;;;;;;;-0.94;72.01;90916.91;6315746;22;19915;-80
2021/12/09 06:29:56;;;;;;;;;;;;;;;-0.89;72.76;90921.28;6316407;22;19904;-77
2021/12/09 06:32:21;;;;;;;;;;;;;;;-0.91;74.19;90929.25;6315187;22;19912;-78
2021/12/09 06:34:47;;;;;;;;;;;;;;;-0.91;75.77;90928.47;6318381;22;20227;-78
2021/12/09 06:37:12;;;;;;;;;;;;;;;-0.95;75.99;90937.72;6214152;23;20319;-78
2021/12/09 06:39:39;;;;;;;;;;;;;;;-0.59;68.63;90940.34;6261765;22;19910;-77
2021/12/09 06:42:05;;;;;;;;;;;;;;;-0.66;71.94;90940.59;6345705;22;19945;-78
2021/12/09 06:44:30;;;;;;;;;;;;;;;-0.71;72.03;90931.09;6319660;22;19921;-78
2021/12/09 06:46:57;;;;;;;;;;;;;;;-0.71;72.23;90938.03;6345337;22;19910;-78
2021/12/09 06:49:23;;;;;;;;;;;;;;;-0.68;69.79;90938.28;6373871;22;19918;-77
2021/12/09 06:51:49;;;;;;;;;;;;;;;-0.63;69.91;90940.88;6373296;22;19902;-77
2021/12/09 06:54:14;;;;;;;;;;;;;;;-0.61;70.75;90939.81;6373162;22;20321;-78
2021/12/09 06:56:40;;;;;;;;;;;;;;;-0.63;71.19;90946.00;6345711;22;20237;-77
2021/12/09 06:59:05;;;;;;;;;;;;;;;-0.63;70.91;90945.25;6373054;22;19940;-78
2021/12/09 07:01:31;;;;;;;;;;;;;;;-0.63;70.50;90952.94;6371506;22;19910;-77
2021/12/09 07:03:56;;;;;;;;;;;;;;;-0.64;70.58;90959.09;6341065;22;19910;-76
2021/12/09 07:06:22;;;;;;;;;;;;;;;-0.62;71.55;90962.19;6316287;22;19955;-76
2021/12/09 07:08:49;;;;;;;;;;;;;;;-0.63;71.43;90965.81;6341661;22;20158;-76
2021/12/09 07:11:16;;;;;;;;;;;;;;;-0.66;71.85;90967.06;6369214;22;19907;-75
2021/12/09 07:13:42;;;;;;;;;;;;;;;-0.67;71.70;90968.09;6341303;22;20305;-75
2021/12/09 07:16:08;;;;;;;;;;;;;;;-0.55;68.94;90970.41;6341655;22;19909;-76
2021/12/09 07:18:34;;;;;;;;;;;;;;;-0.51;69.67;90978.41;6341656;22;19986;-75
2021/12/09 07:21:00;;;;;;;;;;;;;;;-0.49;70.78;90978.94;6341398;22;20039;-76
2021/12/09 07:23:26;;;;;;;;;;;;;;;-0.50;70.94;90982.50;6342374;22;19946;-78
2021/12/09 07:25:51;;;;;;;;;;;;;;;-0.41;68.16;90988.69;6341593;22;19906;-76
2021/12/09 07:28:17;;;;;;;;;;;;;;;-0.22;65.63;90994.88;6314877;22;20382;-76
2021/12/09 07:30:43;;;;;;;;;;;;;;;-0.21;67.92;90996.41;6315898;22;19906;-78
2021/12/09 07:33:08;;;;;;;;;;;;;;;-0.20;67.66;90997.22;6343298;22;20296;-78
2021/12/09 07:35:34;;;;;;;;;;;;;;;-0.23;68.38;90998.47;6341519;22;19913;-76
2021/12/09 07:38:00;;;;;;;;;;;;;;;-0.26;69.30;91006.72;6342255;22;19913;-78
2021/12/09 07:40:26;;;;;;;;;;;;;;;-0.28;69.45;91008.75;6348422;22;20337;-76
2021/12/09 07:42:51;;;;;;;;;;;;;;;-0.29;70.22;91017.50;6337099;22;19902;-76
2021/12/09 07:45:17;;;;;;;;;;;;;;;-0.18;65.02;91014.94;6309838;22;19910;-76
2021/12/09 07:47:44;;;;;;;;;;;;;;;-0.12;65.53;91019.06;6336790;22;19910;-77
2021/12/09 07:50:13;;;;;;;;;;;;;;;-0.02;65.57;91021.66;6311249;22;19906;-78
2021/12/09 07:52:40;;;;;;;;;;;;;;;0.14;63.34;91025.75;6337694;22;19910;-77
2021/12/09 07:55:05;;;;;;;;;;;;;;;0.27;64.74;91023.69;6310846;22;19907;-78
2021/12/09 07:57:33;;;;;;;;;;;;;;;0.41;66.16;91017.00;6312368;22;19933;-78
2021/12/09 07:59:58;;;;;;;;;;;;;;;0.52;66.76;91018.53;6311377;22;20325;-78
2021/12/09 08:02:24;;;;;;;;;;;;;;;0.61;64.67;91032.41;6338283;22;19917;-78
2021/12/09 08:04:50;;;;;;;;;;;;;;;0.69;65.48;91031.09;6338391;22;19916;-78
2021/12/09 08:07:15;;;;;;;;;;;;;;;0.76;60.64;91035.97;6310447;22;19985;-77
2021/12/09 08:09:41;;;;;;;;;;;;;;;0.87;61.88;91032.34;6336242;22;19911;-77
2021/12/09 08:12:07;;;;;;;;;;;;;;;0.98;61.96;91040.81;6310188;22;19910;-78
2021/12/09 08:14:32;;;;;;;;;;;;;;;1.00;64.29;91042.09;6311278;22;19911;-77
2021/12/09 08:17:34;;;;;;;;;;;;;;;1.01;63.17;91032.53;6338967;22;19914;-78
2021/12/09 08:19:59;;;;;;;;;;;;;;;1.13;57.54;91050.31;6338444;22;19911;-78
2021/12/09 08:22:25;;;;;;;;;;;;;;;1.38;53.86;91044.28;6309171;22;19906;-78
2021/12/09 08:24:51;;;;;;;;;;;;;;;1.52;53.77;91050.38;6308766;22;19915;-78
2021/12/09 08:27:17;;;;;;;;;;;;;;;1.79;51.17;91047.41;6338777;22;19909;-79
2021/12/09 08:29:42;;;;;;;;;;;;;;;1.98;53.20;91057.09;6309173;22;19933;-77
2021/12/09 08:32:08;;;;;;;;;;;;;;;1.96;56.59;91048.84;6336445;22;19907;-77
2021/12/09 08:34:33;;;;;;;;;;;;;;;2.13;48.81;91045.91;6308558;22;19937;-77
2021/12/09 08:36:59;;;;;;;;;;;;;;;2.52;49.62;91048.41;6309991;22;19921;-75
2021/12/09 08:39:24;;;;;;;;;;;;;;;2.91;48.42;91044.97;6336277;22;19914;-76
2021/12/09 08:41:49;;;;;;;;;;;;;;;3.28;53.07;91059.81;6282220;22;19911;-74
2021/12/09 08:44:15;;;;;;;;;;;;;;;3.19;50.01;91053.72;6307902;22;19971;-74
2021/12/09 08:46:41;;;;;;;;;;;;;;;3.49;46.45;91060.38;6257736;22;19913;-74
2021/12/09 08:49:08;;;;;;;;;;;;;;;3.95;48.95;91061.59;6335151;22;19985;-74
2021/12/09 08:51:34;;;;;;;;;;;;;;;4.68;50.68;91065.44;6307321;22;19917;-74
2021/12/09 08:54:00;;;;;;;;;;;;;;;5.35;50.61;91062.44;6282656;22;19910;-74
2021/12/09 08:56:25;;;;;;;;;;;;;;;5.47;46.87;91056.00;6307753;22;19902;-75
2021/12/09 08:58:51;;;;;;;;;;;;;;;5.40;49.40;91057.19;6335887;22;19911;-75
2021/12/09 09:01:16;;;;;;;;;;;;;;;5.91;48.87;91065.00;6307586;22;19907;-75
2021/12/09 09:03:42;;;;;;;;;;;;;;;6.26;44.26;91076.53;6282155;22;19925;-75
2021/12/09 09:06:07;;;;;;;;;;;;;;;6.56;45.06;91069.09;6336181;22;19996;-74
2021/12/09 09:08:33;;;;;;;;;;;;;;;6.99;45.35;91071.19;6307836;22;19960;-74
2021/12/09 09:10:59;;;;;;;;;;;;;;;7.26;42.59;91070.25;6335348;22;19907;-75
2021/12/09 09:13:24;;;;;;;;;;;;;;;7.10;38.22;91072.47;6335758;22;19903;-72
2021/12/09 09:15:50;;;;;;;;;;;;;;;7.57;40.49;91077.28;6308068;22;19917;-75
2021/12/09 09:18:17;;;;;;;;;;;;;;;7.50;39.89;91075.88;6335977;22;19938;-75
2021/12/09 09:20:43;;;;;;;;;;;;;;;7.47;37.55;91068.63;6335775;22;20337;-75
2021/12/09 09:23:10;;;;;;;;;;;;;;;7.85;42.00;91085.63;6335379;22;19910;-75
2021/12/09 09:25:36;;;;;;;;;;;;;;;7.67;38.84;91069.94;6308143;22;19910;-75
2021/12/09 09:28:02;;;;;;;;;;;;;;;8.03;38.57;91076.00;6307749;22;19903;-75
2021/12/09 09:30:35;;;;;;;;;;;;;;;8.48;38.60;91073.91;6335140;22;19960;-75
2021/12/09 09:33:01;;;;;;;;;;;;;;;8.15;33.57;91078.78;6308093;22;19903;-72
2021/12/09 09:35:26;;;;;;;;;;;;;;;8.06;34.62;91078.78;6281901;22;19936;-75
2021/12/09 09:37:52;;;;;;;;;;;;;;;8.09;35.01;91080.00;6335468;22;19910;-75
2021/12/09 09:40:27;;;;;;;;;;;;;;;7.43;37.86;91079.94;6308277;22;20360;-75
2021/12/09 09:43:00;;;;;;;;;;;;;;;7.61;35.72;91086.78;6335529;22;19953;-75
2021/12/09 09:45:26;;;;;;;;;;;;;;;8.42;35.90;91095.22;6335165;22;20297;-73
2021/12/09 09:47:52;;;;;;;;;;;;;;;8.13;37.50;91081.69;6308453;22;19906;-73
2021/12/09 09:50:18;;;;;;;;;;;;;;;8.37;36.20;91090.91;6307815;22;19915;-73
2021/12/09 09:52:44;;;;;;;;;;;;;;;9.03;38.75;91092.59;6335009;22;20291;-73
2021/12/09 09:55:13;;;;;;;;;;;;;;;8.43;35.55;91084.50;6336151;22;19943;-73
2021/12/09 09:57:39;;;;;;;;;;;;;;;7.88;36.12;91092.81;6307185;22;20401;-73
2021/12/09 10:00:07;;;;;;;;;;;;;;;7.90;37.45;91088.88;6334960;22;19992;-74
2021/12/09 10:02:34;;;;;;;;;;;;;;;8.33;36.25;91084.75;6334883;22;19903;-73
2021/12/09 10:05:02;;;;;;;;;;;;;;;8.80;38.61;91086.78;6334763;22;20346;-74
2021/12/09 10:07:28;;;;;;;;;;;;;;;8.96;36.71;91090.44;6335686;22;19907;-73
2021/12/09 10:09:54;;;;;;;;;;;;;;;9.05;34.42;91083.41;6283726;22;19997;-75
2021/12/09 10:12:20;;;;;;;;;;;;;;;8.44;36.55;91090.47;6337373;22;19976;-78
2021/12/09 10:14:51;;;;;;;;;;;;;;;9.53;37.79;91092.03;6310256;22;19910;-74
2021/12/09 10:17:24;;;;;;;;;;;;;;;9.39;33.39;91071.31;6309455;22;20364;-73
2021/12/09 10:19:54;;;;;;;;;;;;;;;9.43;32.77;91071.44;6309402;22;19986;-74
2021/12/09 10:22:21;;;;;;;;;;;;;;;9.34;32.39;91074.88;6337335;22;19906;-74
2021/12/09 10:24:48;;;;;;;;;;;;;;;9.74;36.84;91079.78;6308346;22;19907;-74
2021/12/09 10:27:18;;;;;;;;;;;;;;;9.06;29.93;91077.09;6337055;22;19921;-74
2021/12/09 10:29:46;;;;;;;;;;;;;;;8.67;34.02;91076.22;6337500;22;19936;-75
2021/12/09 10:32:17;;;;;;;;;;;;;;;8.74;33.29;91083.59;6309659;22;19903;-74
2021/12/09 10:34:45;;;;;;;;;;;;;;;9.10;35.13;91077.25;6283094;22;19937;-74
2021/12/09 10:37:13;;;;;;;;;;;;;;;8.98;36.42;91077.84;6309361;22;19906;-74
2021/12/09 10:39:43;;;;;;;;;;;;;;;9.20;33.66;91076.13;6308440;22;19911;-75
2021/12/09 10:42:17;;;;;;;;;;;;;;;9.85;31.67;91071.59;6338533;22;19907;-75
2021/12/09 10:44:47;;;;;;;;;;;;;;;9.30;32.62;91084.41;6336696;22;19949;-75
2021/12/09 10:47:21;;;;;;;;;;;;;;;9.37;35.18;91079.47;6309704;22;19938;-77
2021/12/09 10:50:02;;;;;;;;;;;;;;;9.50;30.92;91080.34;6335587;22;19913;-75
2021/12/09 10:52:38;;;;;;;;;;;;;;;9.67;27.54;91068.28;6336769;22;19907;-75
2021/12/09 10:55:14;;;;;;;;;;;;;;;9.36;29.80;91077.16;6336437;22;19956;-75
2021/12/09 10:57:40;;;;;;;;;;;;;;;10.23;29.13;91071.53;6308425;22;19937;-75
2021/12/09 11:00:29;;;;;;;;;;;;;;;11.12;28.49;91067.91;6334804;22;19902;-75
2021/12/09 11:03:07;;;;;;;;;;;;;;;10.89;28.60;91068.28;6314571;22;19983;-75
2021/12/09 11:05:35;;;;;;;;;;;;;;;10.53;29.58;91071.50;6308281;22;19952;-76
2021/12/09 11:08:17;;;;;;;;;;;;;;;10.44;30.53;91073.41;6334602;22;19913;-75
2021/12/09 11:10:48;;;;;;;;;;;;;;;10.94;28.19;91067.31;6276910;22;20253;-75
2021/12/09 11:13:15;;;;;;;;;;;;;;;10.77;30.61;91070.84;6307970;22;19914;-75
2021/12/09 11:15:55;;;;;;;;;;;;;;;11.01;28.59;91078.81;6334919;22;19913;-77
2021/12/09 11:18:39;;;;;;;;;;;;;;;11.63;27.24;91077.06;6309516;22;19907;-77
2021/12/09 11:21:17;;;;;;;;;;;;;;;12.04;26.31;91083.22;6335426;22;20326;-77
2021/12/09 11:23:45;;;;;;;;;;;;;;;11.51;27.12;91078.94;6334902;22;19911;-79
2021/12/09 11:26:22;;;;;;;;;;;;;;;11.60;26.32;91082.22;6338927;22;19910;-78
2021/12/09 11:28:58;;;;;;;;;;;;;;;11.90;25.44;91084.66;6339869;22;20381;-78
2021/12/09 11:31:28;;;;;;;;;;;;;;;11.83;23.65;91091.19;6342292;22;19914;-78
2021/12/09 11:33:59;;;;;;;;;;;;;;;10.76;25.76;91077.94;6312269;22;19928;-76
2021/12/09 11:36:38;;;;;;;;;;;;;;;10.96;26.69;91080.84;6341644;22;19917;-78
2021/12/09 11:39:07;;;;;;;;;;;;;;;10.97;26.66;91083.16;6336836;22;19906;-77
2021/12/09 11:41:35;;;;;;;;;;;;;;;9.82;27.43;91078.22;6336400;22;19925;-77
2021/12/09 11:44:01;;;;;;;;;;;;;;;10.75;27.32;91073.03;6335284;22;19914;-76
2021/12/09 11:46:26;;;;;;;;;;;;;;;10.89;25.43;91068.28;6336083;22;19902;-77
2021/12/09 11:48:52;;;;;;;;;;;;;;;10.71;22.43;91070.28;6309833;22;19911;-78
2021/12/09 11:51:17;;;;;;;;;;;;;;;10.95;24.84;91071.47;6283711;22;19906;-77
2021/12/09 11:53:45;;;;;;;;;;;;;;;11.57;24.32;91072.38;6310460;22;20318;-77
2021/12/09 11:56:41;;;;;;;;;;;;;;;12.03;23.97;91078.34;6337773;22;19907;-77
2021/12/09 12:15:24;;;;;;;;;;;;;;;10.81;24.70;91090.84;6285487;22;19906;-77
2021/12/09 12:21:13;;;;;;;;;;;;;;;11.43;24.91;91089.16;6336751;22;19907;-77
2021/12/09 12:24:14;;;;;;;;;;;;;;;11.81;24.20;91088.13;6309917;22;19911;-77
2021/12/09 12:32:06;;;;;;;;;;;;;;;11.67;23.34;91103.41;6331093;22;19928;-77
2021/12/09 12:37:58;;;;;;;;;;;;;;;11.14;24.70;91095.31;6336217;22;19906;-77
2021/12/09 12:40:30;;;;;;;;;;;;;;;10.27;25.22;91097.78;6307904;22;19910;-76
2021/12/09 12:51:09;;;;;;;;;;;;;;;10.49;24.99;91108.03;6308526;22;19906;-78
2021/12/09 12:53:39;;;;;;;;;;;;;;;10.75;24.10;91102.56;6281665;22;19934;-76
2021/12/09 12:56:12;;;;;;;;;;;;;;;11.18;23.77;91104.06;6307990;22;19906;-76
2021/12/09 12:58:39;;;;;;;;;;;;;;;11.56;22.95;91102.28;6336285;22;19906;-76
2021/12/09 13:01:18;;;;;;;;;;;;;;;9.07;22.43;91091.66;6335623;22;19993;-76
2021/12/09 13:03:50;;;;;;;;;;;;;;;9.31;23.19;91101.59;6335242;22;19968;-76
2021/12/09 13:06:38;;;;;;;;;;;;;;;10.30;23.09;91110.28;6282713;22;19938;-76
2021/12/09 13:09:22;;;;;;;;;;;;;;;10.09;24.45;91112.84;6308196;22;19907;-76
2021/12/09 13:11:53;;;;;;;;;;;;;;;9.80;24.13;91117.72;6335239;22;19917;-76
2021/12/09 13:14:24;;;;;;;;;;;;;;;10.32;24.73;91106.25;6282319;22;19907;-77
2021/12/09 13:17:03;;;;;;;;;;;;;;;9.26;23.97;91114.81;6307070;22;19916;-76
2021/12/09 13:22:35;;;;;;;;;;;;;;;10.73;24.73;91109.97;6256162;22;19910;-76
2021/12/09 13:25:23;;;;;;;;;;;;;;;10.12;23.77;91107.72;6307983;22;19917;-76
2021/12/09 13:35:46;;;;;;;;;;;;;;;10.44;24.50;91110.03;6307791;22;19909;-77
2021/12/09 13:49:17;;;;;;;;;;;;;;;10.55;23.82;91132.88;6207906;23;20399;-77
2021/12/09 13:54:23;;;;;;;;;;;;;;;9.74;23.64;91139.88;6315758;22;19916;-77
2021/12/09 13:56:54;;;;;;;;;;;;;;;9.98;21.52;91134.09;6314638;22;19908;-77
2021/12/09 13:59:21;;;;;;;;;;;;;;;10.28;22.46;91135.97;6314686;22;19994;-77
2021/12/09 14:01:47;;;;;;;;;;;;;;;8.60;25.37;91148.19;6209110;23;19969;-77
2021/12/09 14:04:17;;;;;;;;;;;;;;;8.71;27.32;91152.81;6314535;22;19916;-76
2021/12/09 14:06:51;;;;;;;;;;;;;;;8.86;25.62;91159.41;6314030;22;19915;-77
2021/12/09 14:09:17;;;;;;;;;;;;;;;8.92;27.24;91171.22;6207231;23;20372;-77
2021/12/09 14:11:48;;;;;;;;;;;;;;;8.94;26.34;91161.25;6207476;23;19911;-77
2021/12/09 14:14:18;;;;;;;;;;;;;;;8.98;25.74;91166.59;6311743;22;19912;-78
2021/12/09 14:16:53;;;;;;;;;;;;;;;8.54;25.16;91171.03;6209540;23;19911;-78
2021/12/09 14:21:46;;;;;;;;;;;;;;;7.40;32.47;91179.50;6315662;22;19999;-79
2021/12/09 14:24:14;;;;;;;;;;;;;;;7.10;30.46;91184.38;6288553;22;19911;-77
2021/12/09 14:26:41;;;;;;;;;;;;;;;6.89;32.85;91194.47;6209178;23;19908;-77
2021/12/09 14:29:07;;;;;;;;;;;;;;;6.19;28.32;91200.84;6210475;23;19908;-78
2021/12/09 14:31:59;;;;;;;;;;;;;;;5.96;28.80;91190.38;6315612;22;19908;-78
2021/12/09 14:34:26;;;;;;;;;;;;;;;6.00;33.74;91209.53;6211030;22;19918;-77
2021/12/09 14:36:56;;;;;;;;;;;;;;;6.20;32.00;91202.41;6210124;23;19904;-78
2021/12/09 14:39:22;;;;;;;;;;;;;;;6.25;35.28;91216.06;6315913;22;20255;-79
2021/12/09 14:42:02;;;;;;;;;;;;;;;6.15;29.09;91213.66;6344021;22;19914;-79
2021/12/09 14:44:28;;;;;;;;;;;;;;;5.97;29.50;91215.31;6343564;22;19998;-78
2021/12/09 14:47:03;;;;;;;;;;;;;;;5.62;28.43;91212.25;6342360;22;19934;-78
2021/12/09 14:49:29;;;;;;;;;;;;;;;5.44;30.33;91223.47;6370553;22;19913;-78
2021/12/09 14:51:55;;;;;;;;;;;;;;;5.22;32.81;91224.88;6368881;22;19906;-78
2021/12/09 14:54:25;;;;;;;;;;;;;;;5.00;35.05;91232.47;6368059;22;19906;-77
2021/12/09 14:56:55;;;;;;;;;;;;;;;4.80;31.77;91231.69;6342066;22;19906;-79
2021/12/09 14:59:27;;;;;;;;;;;;;;;4.68;34.35;91244.28;6368235;22;20317;-78
2021/12/09 15:01:53;;;;;;;;;;;;;;;4.46;37.53;91241.47;6368668;22;19969;-78
2021/12/09 15:04:30;;;;;;;;;;;;;;;4.22;36.30;91250.06;6369962;22;19961;-77
2021/12/09 15:06:58;;;;;;;;;;;;;;;4.07;40.21;91260.59;6369252;22;19938;-77
2021/12/09 15:09:24;;;;;;;;;;;;;;;3.89;40.63;91262.06;6369273;22;19913;-77
2021/12/09 15:11:51;;;;;;;;;;;;;;;3.70;40.95;91270.53;6313835;22;19907;-78
2021/12/09 15:14:20;;;;;;;;;;;;;;;3.57;40.16;91273.00;6340133;22;19917;-77
2021/12/09 15:16:46;;;;;;;;;;;;;;;3.42;40.94;91276.47;6367172;22;19902;-76
2021/12/09 15:19:16;;;;;;;;;;;;;;;3.26;42.12;91273.22;6340124;22;20285;-77
2021/12/09 15:21:42;;;;;;;;;;;;;;;3.11;41.34;91279.31;6367650;22;19906;-77
2021/12/09 15:24:11;;;;;;;;;;;;;;;3.04;42.10;91283.97;6313300;22;20331;-77
2021/12/09 15:26:39;;;;;;;;;;;;;;;2.88;43.77;91291.84;6368036;22;19906;-76
2021/12/09 15:29:08;;;;;;;;;;;;;;;2.74;38.46;91283.13;6367984;22;20247;-76
2021/12/09 15:31:34;;;;;;;;;;;;;;;2.66;42.28;91291.47;6339148;22;19989;-75
2021/12/09 15:34:17;;;;;;;;;;;;;;;2.54;43.84;91288.41;6367405;22;19910;-77
2021/12/09 15:36:53;;;;;;;;;;;;;;;2.38;43.28;91295.47;6339663;22;20373;-75
2021/12/09 15:39:23;;;;;;;;;;;;;;;2.31;40.52;91300.91;6367960;22;19985;-77
2021/12/09 15:41:59;;;;;;;;;;;;;;;2.19;39.55;91306.38;6339206;22;19921;-77
2021/12/09 15:44:26;;;;;;;;;;;;;;;2.17;37.75;91316.19;6338692;22;19994;-77
2021/12/09 15:46:55;;;;;;;;;;;;;;;2.14;40.37;91315.94;6367624;22;19902;-77
2021/12/09 15:49:23;;;;;;;;;;;;;;;2.04;42.09;91319.31;6340329;22;20000;-77
2021/12/09 15:51:50;;;;;;;;;;;;;;;1.93;41.46;91325.53;6339045;22;20249;-77
2021/12/09 15:54:18;;;;;;;;;;;;;;;1.84;40.07;91328.63;6367320;22;20263;-77
2021/12/09 15:56:46;;;;;;;;;;;;;;;1.80;40.52;91319.91;6367716;22;19985;-77
2021/12/09 15:59:13;;;;;;;;;;;;;;;1.74;40.24;91323.50;6367772;22;20336;-76
2021/12/09 16:01:40;;;;;;;;;;;;;;;1.70;38.95;91327.63;6339950;22;19913;-77
2021/12/09 16:04:06;;;;;;;;;;;;;;;1.65;39.97;91338.75;6339223;22;19906;-76
2021/12/09 16:06:32;;;;;;;;;;;;;;;1.57;41.84;91341.81;6313081;22;19917;-77
2021/12/09 16:08:58;;;;;;;;;;;;;;;1.52;41.54;91346.22;6341705;22;20218;-77
2021/12/09 16:11:23;;;;;;;;;;;;;;;1.42;41.17;91347.78;6366486;22;19980;-78
2021/12/09 16:13:54;;;;;;;;;;;;;;;1.38;39.33;91346.75;6366799;22;19937;-77
2021/12/09 16:16:20;;;;;;;;;;;;;;;1.37;40.32;91350.34;6367777;22;20358;-76
2021/12/09 16:18:48;;;;;;;;;;;;;;;1.34;41.41;91337.19;6339605;22;20206;-76